Aérodrome :
LOGIN :

S'inscrire | Disclaimer

   EN    FR    IT 

 










Légende :    VFR   VFR Marginal   IFR   IFR Intensif   IFR Très Intensif
Visi : 
Plafond : 
>= 8 km
>= 3000ft
5 à 8 km
1000 à 3000 ft
1500m à 5 km
500 à 1000 ft
800 à 1500m
200 à 500 ft
< 800m
< 200 ft
Symboles :   Orages  Brouillard  Fortes neiges  Fortes précipitations  Vent > 20 kt
SIGMETs :   Divers  Orages  Givrage  Turbulence  Onde Orograph.  Cendres Volcan.






- Altitude de l'aérodrome : 505 ft
- Code IATA : SXB


LFST - Strasbourg

DERNIER METAR :
  • 180430Z AUTO 22009KT 190V250 9999 FEW027 BKN036 BKN043 06/03 Q1027 TEMPO 25015G28KT FEW030TCU

METARs EXPIRÉS :
  • 180400Z AUTO 21007KT 9999 BKN054 05/03 Q1027 TEMPO 25015G28KT FEW030TCU
  • 180330Z AUTO 21009KT 9999 BKN054 BKN068 05/03 Q1027 TEMPO 25015G28KT FEW030TCU
  • 180300Z AUTO 23014KT 9999 SCT033 BKN041 BKN047 06/03 Q1026 TEMPO 25015G28KT FEW030TCU
  • 180230Z AUTO 19006KT 170V230 CAVOK 06/04 Q1026 TEMPO 25015G28KT FEW030TCU
  • 180200Z AUTO 20005KT 9999 FEW035 SCT052 BKN066 06/04 Q1026 TEMPO 25015G28KT FEW030TCU
  • 180130Z AUTO 25013KT 9999 -RA SCT037 BKN047 BKN056 07/04 Q1026 TEMPO 25015G28KT FEW030TCU

TAF TAF LFST
Valide du 18 à 00h jusqu'au 19 à 00h UTC


172300Z 1800/1824 24012KT 9999 FEW025 BKN035
TEMPO 1800/1806 25015G28KT -SHRA FEW030TCU



MET'MAP, la Météo Aéronautique d'un coup d'oeil ! - Copyright ORBIFLY Décembre 2007 - Disclaimer

ORBIFLY MET'MAP TEAM :

Programmation & Développement : Alexandra Zaïnal
Sur une idée originale de : Baudouin d'Aumeries
Assistance à la programmation : Marc-Olivier Méhu
Soutien technique & logistique : Manuel Goepfert

Contact : metmap@orbifly.com




SOURCES & CREDITS :

   NOAA